Disclaimer

Please do not use the information listed here in-flight or in-navigation, as they are not provided to us by the airports but are provided by volunteers, so they might be outdated.

Search


Regions


Airport information page

Radio informations:
UNICOM - 123.0 MHz
Tower (TWR) - 119.5 MHz
RDO - 128.0 MHz
Ground (GND) - 121.7 MHz
Common traffic adv. frequency (CTAF) - 122.95 MHz
Clearance delivery - 118.3 MHz
Automatic Terminal Information Service (ATIS) - 118.7 MHz
Approach (APP) - 121.0 MHz

Airport informations:
Latitude: 25° 02' 20.25" N
Longitude: 077° 27' 58.43" W
Elevation: 16 feet - 5 meters
Operating hours: 24 hour operations
Operating agency: Civil government, landing fees and diplomatic clearance may be required
Timezone: UTC-5(-4DT) - Second Sunday in March at 0200 to first Sunday in November at 0200 local time (Exception Arizona and that portion of Indiana in the Eastern Time Zone)
Fuel: Jet A1, without icing nhibitor.

100/130 MIL Spec, low lead, aviation gasoline (BLUE)

Runway information:
09/27 - 8324 x 150 feet< - >2537 x 46 meters
14/32 - 11018 x 150 feet< - >3358 x 46 meters

Recent METARs:
MYNN 191600Z 05006KT 9999 FEW020 BKN220 27/22 A3010
MYNN 191600Z 05006KT 9999 FEW020 BKN220 27/22 A3010
MYNN 191700Z 05007KT 9999 SCT020 BKN200 28/22 A3008

Airport on the map: